sensor_id;sensor_type;location;lat;lon;timestamp;pressure;altitude;pressure_sealevel;temperature;humidity
78625;BME280;67944;0.000;0.000;2023-10-31T00:01:11;99035.66;;;22.23;48.77
78625;BME280;67944;0.000;0.000;2023-10-31T00:03:36;99028.75;;;22.22;48.66
78625;BME280;67944;0.000;0.000;2023-10-31T00:06:01;99026.09;;;22.22;48.72
78625;BME280;67944;0.000;0.000;2023-10-31T00:08:27;99032.41;;;22.21;48.98
78625;BME280;67944;0.000;0.000;2023-10-31T00:10:52;99036.91;;;22.20;48.60
78625;BME280;67944;0.000;0.000;2023-10-31T00:13:18;99044.06;;;22.20;48.65
78625;BME280;67944;0.000;0.000;2023-10-31T00:15:43;99044.06;;;22.20;48.80
78625;BME280;67944;0.000;0.000;2023-10-31T00:18:09;99048.56;;;22.19;48.73
78625;BME280;67944;0.000;0.000;2023-10-31T00:20:34;99064.47;;;22.19;48.49
78625;BME280;67944;0.000;0.000;2023-10-31T00:23:00;99062.84;;;22.18;48.75
78625;BME280;67944;0.000;0.000;2023-10-31T00:25:25;99071.63;;;22.19;48.74
78625;BME280;67944;0.000;0.000;2023-10-31T00:27:51;99074.50;;;22.17;48.69
78625;BME280;67944;0.000;0.000;2023-10-31T00:30:16;99079.78;;;22.17;48.66
78625;BME280;67944;0.000;0.000;2023-10-31T00:32:42;99072.88;;;22.16;48.48
78625;BME280;67944;0.000;0.000;2023-10-31T00:35:07;99072.88;;;22.16;48.90
78625;BME280;67944;0.000;0.000;2023-10-31T00:37:33;99074.72;;;22.16;48.69
78625;BME280;67944;0.000;0.000;2023-10-31T00:39:58;99062.47;;;22.15;48.81
78625;BME280;67944;0.000;0.000;2023-10-31T00:42:24;99069.63;;;22.14;48.63
78625;BME280;67944;0.000;0.000;2023-10-31T00:44:49;99068.81;;;22.14;48.41
78625;BME280;67944;0.000;0.000;2023-10-31T00:47:15;99059.81;;;22.15;48.98
78625;BME280;67944;0.000;0.000;2023-10-31T00:49:41;99070.66;;;22.13;48.71
78625;BME280;67944;0.000;0.000;2023-10-31T00:52:06;99080.22;;;22.14;48.72
78625;BME280;67944;0.000;0.000;2023-10-31T00:54:32;99075.97;;;22.13;48.24
78625;BME280;67944;0.000;0.000;2023-10-31T00:56:57;99082.28;;;22.12;48.53
78625;BME280;67944;0.000;0.000;2023-10-31T00:59:23;99078.03;;;22.11;48.78
78625;BME280;67944;0.000;0.000;2023-10-31T01:01:49;99075.38;;;22.11;48.68
78625;BME280;67944;0.000;0.000;2023-10-31T01:04:14;99082.28;;;22.12;48.56
78625;BME280;67944;0.000;0.000;2023-10-31T01:06:41;99076.19;;;22.12;48.56
78625;BME280;67944;0.000;0.000;2023-10-31T01:09:07;99072.72;;;22.11;48.57
78625;BME280;67944;0.000;0.000;2023-10-31T01:11:33;99068.44;;;22.10;48.77
78625;BME280;67944;0.000;0.000;2023-10-31T01:13:58;99067.41;;;22.11;48.50
78625;BME280;67944;0.000;0.000;2023-10-31T01:16:23;99079.88;;;22.11;48.79
78625;BME280;67944;0.000;0.000;2023-10-31T01:18:49;99076.41;;;22.10;48.62
78625;BME280;67944;0.000;0.000;2023-10-31T01:21:14;99074.78;;;22.09;48.49
78625;BME280;67944;0.000;0.000;2023-10-31T01:23:40;99072.13;;;22.09;48.78
78625;BME280;67944;0.000;0.000;2023-10-31T01:26:05;99087.22;;;22.09;48.60
78625;BME280;67944;0.000;0.000;2023-10-31T01:28:31;99091.75;;;22.08;48.51
78625;BME280;67944;0.000;0.000;2023-10-31T01:30:56;99091.97;;;22.07;48.51
78625;BME280;67944;0.000;0.000;2023-10-31T01:33:22;99104.41;;;22.06;48.43
78625;BME280;67944;0.000;0.000;2023-10-31T01:35:47;99103.84;;;22.04;48.77
78625;BME280;67944;0.000;0.000;2023-10-31T01:38:13;99098.53;;;22.04;48.69
78625;BME280;67944;0.000;0.000;2023-10-31T01:40:39;99100.38;;;22.04;48.70
78625;BME280;67944;0.000;0.000;2023-10-31T01:43:04;99097.94;;;22.02;48.63
78625;BME280;67944;0.000;0.000;2023-10-31T01:45:30;99105.09;;;22.02;48.70
78625;BME280;67944;0.000;0.000;2023-10-31T01:47:55;99108.75;;;22.01;48.79
78625;BME280;67944;0.000;0.000;2023-10-31T01:50:21;99104.47;;;22.00;48.57
78625;BME280;67944;0.000;0.000;2023-10-31T01:52:47;99095.69;;;21.99;48.74
78625;BME280;67944;0.000;0.000;2023-10-31T01:55:13;99099.16;;;22.00;48.80
78625;BME280;67944;0.000;0.000;2023-10-31T01:57:39;99103.66;;;21.99;48.63
78625;BME280;67944;0.000;0.000;2023-10-31T02:00:05;99106.31;;;21.99;48.75
78625;BME280;67944;0.000;0.000;2023-10-31T02:02:33;99106.53;;;21.98;48.79
78625;BME280;67944;0.000;0.000;2023-10-31T02:05:00;99108.38;;;21.97;48.71
78625;BME280;67944;0.000;0.000;2023-10-31T02:07:25;99106.75;;;21.96;48.62
78625;BME280;67944;0.000;0.000;2023-10-31T02:09:51;99097.16;;;21.95;48.70
78625;BME280;67944;0.000;0.000;2023-10-31T02:12:36;99106.75;;;21.96;48.66
78625;BME280;67944;0.000;0.000;2023-10-31T02:15:03;99105.13;;;21.95;48.60
78625;BME280;67944;0.000;0.000;2023-10-31T02:17:29;99091.88;;;21.95;48.68
78625;BME280;67944;0.000;0.000;2023-10-31T02:19:54;99098.78;;;21.96;48.66
78625;BME280;67944;0.000;0.000;2023-10-31T02:22:21;99101.66;;;21.95;48.63
78625;BME280;67944;0.000;0.000;2023-10-31T02:24:47;99106.16;;;21.94;48.64
78625;BME280;67944;0.000;0.000;2023-10-31T02:27:12;99108.81;;;21.94;48.55
78625;BME280;67944;0.000;0.000;2023-10-31T02:29:39;99099.22;;;21.93;48.70
78625;BME280;67944;0.000;0.000;2023-10-31T02:32:04;99105.56;;;21.92;48.54
78625;BME280;67944;0.000;0.000;2023-10-31T02:34:30;99108.44;;;21.90;48.47
78625;BME280;67944;0.000;0.000;2023-10-31T02:36:55;99114.75;;;21.89;48.75
78625;BME280;67944;0.000;0.000;2023-10-31T02:39:21;99115.78;;;21.88;48.78
78625;BME280;67944;0.000;0.000;2023-10-31T02:41:46;99123.97;;;21.87;48.59
78625;BME280;67944;0.000;0.000;2023-10-31T02:44:14;99135.63;;;21.86;48.67
78625;BME280;67944;0.000;0.000;2023-10-31T02:46:40;99132.97;;;21.86;48.64
78625;BME280;67944;0.000;0.000;2023-10-31T02:49:05;99146.44;;;21.84;48.59
78625;BME280;67944;0.000;0.000;2023-10-31T02:51:31;99149.91;;;21.85;48.74
78625;BME280;67944;0.000;0.000;2023-10-31T02:53:56;99148.28;;;21.84;48.75
78625;BME280;67944;0.000;0.000;2023-10-31T02:56:21;99153.59;;;21.84;48.71
78625;BME280;67944;0.000;0.000;2023-10-31T02:58:47;99166.03;;;21.83;48.65
78625;BME280;67944;0.000;0.000;2023-10-31T03:01:12;99166.47;;;21.80;48.74
78625;BME280;67944;0.000;0.000;2023-10-31T03:03:38;99164.03;;;21.79;48.55
78625;BME280;67944;0.000;0.000;2023-10-31T03:06:04;99168.50;;;21.78;48.55
78625;BME280;67944;0.000;0.000;2023-10-31T03:08:30;99166.88;;;21.77;48.93
78625;BME280;67944;0.000;0.000;2023-10-31T03:10:56;99164.25;;;21.77;48.58
78625;BME280;67944;0.000;0.000;2023-10-31T03:13:21;99155.47;;;21.77;48.64
78625;BME280;67944;0.000;0.000;2023-10-31T03:15:47;99159.97;;;21.76;48.50
78625;BME280;67944;0.000;0.000;2023-10-31T03:18:13;99164.47;;;21.76;48.68
78625;BME280;67944;0.000;0.000;2023-10-31T03:20:40;99171.00;;;21.73;48.64
78625;BME280;67944;0.000;0.000;2023-10-31T03:23:06;99172.03;;;21.72;48.59
78625;BME280;67944;0.000;0.000;2023-10-31T03:25:31;99175.50;;;21.73;48.36
78625;BME280;67944;0.000;0.000;2023-10-31T03:27:56;99179.16;;;21.72;48.60
78625;BME280;67944;0.000;0.000;2023-10-31T03:30:22;99176.53;;;21.72;48.80
78625;BME280;67944;0.000;0.000;2023-10-31T03:32:47;99180.19;;;21.71;48.58
78625;BME280;67944;0.000;0.000;2023-10-31T03:35:13;99187.34;;;21.70;48.78
78625;BME280;67944;0.000;0.000;2023-10-31T03:37:38;99189.19;;;21.70;48.59
78625;BME280;67944;0.000;0.000;2023-10-31T03:40:08;99186.75;;;21.68;48.42
78625;BME280;67944;0.000;0.000;2023-10-31T03:42:33;99194.69;;;21.68;48.55
78625;BME280;67944;0.000;0.000;2023-10-31T03:44:59;99202.63;;;21.68;48.78
78625;BME280;67944;0.000;0.000;2023-10-31T03:47:25;99204.47;;;21.68;48.41
78625;BME280;67944;0.000;0.000;2023-10-31T03:49:50;99200.19;;;21.67;48.68
78625;BME280;67944;0.000;0.000;2023-10-31T03:52:16;99216.09;;;21.67;48.46
78625;BME280;67944;0.000;0.000;2023-10-31T03:54:41;99210.00;;;21.66;48.59
78625;BME280;67944;0.000;0.000;2023-10-31T03:57:07;99214.25;;;21.67;48.42
78625;BME280;67944;0.000;0.000;2023-10-31T03:59:32;99208.16;;;21.67;48.59
78625;BME280;67944;0.000;0.000;2023-10-31T04:01:58;99204.69;;;21.66;48.73
78625;BME280;67944;0.000;0.000;2023-10-31T04:04:23;99214.25;;;21.67;48.55
78625;BME280;67944;0.000;0.000;2023-10-31T04:06:49;99215.66;;;21.70;48.59
78625;BME280;67944;0.000;0.000;2023-10-31T04:09:14;99209.56;;;21.69;48.89
78625;BME280;67944;0.000;0.000;2023-10-31T04:11:40;99213.63;;;21.72;48.65
78625;BME280;67944;0.000;0.000;2023-10-31T04:14:06;99224.59;;;21.75;48.44
78625;BME280;67944;0.000;0.000;2023-10-31T04:16:32;99222.75;;;21.76;48.46
78625;BME280;67944;0.000;0.000;2023-10-31T04:18:57;99227.03;;;21.77;48.36
78625;BME280;67944;0.000;0.000;2023-10-31T04:21:23;99229.50;;;21.72;47.63
78625;BME280;67944;0.000;0.000;2023-10-31T04:23:48;99234.50;;;21.62;47.35
78625;BME280;67944;0.000;0.000;2023-10-31T04:26:14;99225.63;;;21.49;46.55
78625;BME280;67944;0.000;0.000;2023-10-31T04:28:41;99218.81;;;21.35;46.39
78625;BME280;67944;0.000;0.000;2023-10-31T04:31:06;99232.53;;;21.26;46.31
78625;BME280;67944;0.000;0.000;2023-10-31T04:33:32;99227.09;;;21.14;45.94
78625;BME280;67944;0.000;0.000;2023-10-31T04:35:57;99229.38;;;21.04;46.15
78625;BME280;67944;0.000;0.000;2023-10-31T04:38:22;99233.31;;;20.95;45.54
78625;BME280;67944;0.000;0.000;2023-10-31T04:40:48;99237.00;;;20.87;45.98
78625;BME280;67944;0.000;0.000;2023-10-31T04:43:13;99230.13;;;20.79;46.15
78625;BME280;67944;0.000;0.000;2023-10-31T04:45:39;99234.66;;;20.72;45.87
78625;BME280;67944;0.000;0.000;2023-10-31T04:48:04;99231.81;;;20.67;45.82
78625;BME280;67944;0.000;0.000;2023-10-31T04:50:30;99240.59;;;20.61;45.39
78625;BME280;67944;0.000;0.000;2023-10-31T04:52:55;99245.72;;;20.56;45.17
78625;BME280;67944;0.000;0.000;2023-10-31T04:55:21;99245.09;;;20.54;45.55
78625;BME280;67944;0.000;0.000;2023-10-31T04:57:46;99253.66;;;20.56;45.37
78625;BME280;67944;0.000;0.000;2023-10-31T05:00:12;99239.38;;;20.57;45.44
78625;BME280;67944;0.000;0.000;2023-10-31T05:02:38;99254.41;;;20.63;45.71
78625;BME280;67944;0.000;0.000;2023-10-31T05:05:03;99237.09;;;20.67;45.33
78625;BME280;67944;0.000;0.000;2023-10-31T05:07:29;99235.47;;;20.73;45.25
78625;BME280;67944;0.000;0.000;2023-10-31T05:09:54;99242.13;;;20.82;45.64
78625;BME280;67944;0.000;0.000;2023-10-31T05:12:20;99245.94;;;20.93;45.08
78625;BME280;67944;0.000;0.000;2023-10-31T05:14:45;99252.59;;;21.02;45.28
78625;BME280;67944;0.000;0.000;2023-10-31T05:17:11;99255.59;;;21.12;45.36
78625;BME280;67944;0.000;0.000;2023-10-31T05:19:36;99259.66;;;21.21;45.36
78625;BME280;67944;0.000;0.000;2023-10-31T05:22:01;99261.81;;;21.31;45.20
78625;BME280;67944;0.000;0.000;2023-10-31T05:24:27;99269.31;;;21.40;45.26
78625;BME280;67944;0.000;0.000;2023-10-31T05:26:53;99269.84;;;21.49;45.29
78625;BME280;67944;0.000;0.000;2023-10-31T05:29:18;99270.41;;;21.58;44.91
78625;BME280;67944;0.000;0.000;2023-10-31T05:31:44;99267.47;;;21.66;45.10
78625;BME280;67944;0.000;0.000;2023-10-31T05:34:09;99270.06;;;21.72;44.93
78625;BME280;67944;0.000;0.000;2023-10-31T05:36:35;99274.31;;;21.80;45.01
78625;BME280;67944;0.000;0.000;2023-10-31T05:39:00;99279.56;;;21.86;44.87
78625;BME280;67944;0.000;0.000;2023-10-31T05:41:26;99269.91;;;21.92;45.14
78625;BME280;67944;0.000;0.000;2023-10-31T05:43:51;99269.84;;;21.99;44.68
78625;BME280;67944;0.000;0.000;2023-10-31T05:46:17;99280.44;;;22.05;44.63
78625;BME280;67944;0.000;0.000;2023-10-31T05:48:46;99285.88;;;22.10;44.64
78625;BME280;67944;0.000;0.000;2023-10-31T05:53:40;99286.19;;;22.20;44.40
78625;BME280;67944;0.000;0.000;2023-10-31T05:56:06;99287.38;;;22.25;44.24
78625;BME280;67944;0.000;0.000;2023-10-31T05:58:35;99288.31;;;22.30;44.17
78625;BME280;67944;0.000;0.000;2023-10-31T06:01:00;99297.69;;;22.33;44.30
78625;BME280;67944;0.000;0.000;2023-10-31T06:03:26;99309.28;;;22.38;44.13
78625;BME280;67944;0.000;0.000;2023-10-31T06:05:51;99316.56;;;22.43;44.22
78625;BME280;67944;0.000;0.000;2023-10-31T06:08:17;99321.22;;;22.47;44.24
78625;BME280;67944;0.000;0.000;2023-10-31T06:10:42;99317.34;;;22.50;43.83
78625;BME280;67944;0.000;0.000;2023-10-31T06:13:08;99327.47;;;22.53;43.79
78625;BME280;67944;0.000;0.000;2023-10-31T06:15:33;99331.31;;;22.57;44.01
78625;BME280;67944;0.000;0.000;2023-10-31T06:17:59;99328.81;;;22.62;43.64
78625;BME280;67944;0.000;0.000;2023-10-31T06:20:24;99329.19;;;22.66;43.86
78625;BME280;67944;0.000;0.000;2023-10-31T06:22:50;99337.53;;;22.69;43.45
78625;BME280;67944;0.000;0.000;2023-10-31T06:25:15;99344.03;;;22.73;43.58
78625;BME280;67944;0.000;0.000;2023-10-31T06:27:41;99346.03;;;22.78;43.38
78625;BME280;67944;0.000;0.000;2023-10-31T06:30:07;99350.06;;;22.80;43.54
78625;BME280;67944;0.000;0.000;2023-10-31T06:32:32;99354.50;;;22.86;43.35
78625;BME280;67944;0.000;0.000;2023-10-31T06:34:58;99364.47;;;22.91;43.42
78625;BME280;67944;0.000;0.000;2023-10-31T06:37:23;99367.50;;;22.95;43.33
78625;BME280;67944;0.000;0.000;2023-10-31T06:39:49;99377.44;;;22.99;43.83
78625;BME280;67944;0.000;0.000;2023-10-31T06:42:14;99375.97;;;23.03;43.37
78625;BME280;67944;0.000;0.000;2023-10-31T06:44:40;99385.91;;;23.08;43.43
78625;BME280;67944;0.000;0.000;2023-10-31T06:47:05;99387.09;;;23.12;43.58
78625;BME280;67944;0.000;0.000;2023-10-31T06:49:31;99393.59;;;23.16;43.59
78625;BME280;67944;0.000;0.000;2023-10-31T06:51:56;99394.97;;;23.18;42.78
78625;BME280;67944;0.000;0.000;2023-10-31T06:54:21;99391.88;;;23.21;42.89
78625;BME280;67944;0.000;0.000;2023-10-31T06:56:47;99390.63;;;23.24;43.53
78625;BME280;67944;0.000;0.000;2023-10-31T06:59:13;99392.84;;;23.27;42.57
78625;BME280;67944;0.000;0.000;2023-10-31T07:01:38;99401.41;;;23.29;43.20
78625;BME280;67944;0.000;0.000;2023-10-31T07:04:04;99392.16;;;23.32;43.04
78625;BME280;67944;0.000;0.000;2023-10-31T07:06:29;99393.56;;;23.34;42.59
78625;BME280;67944;0.000;0.000;2023-10-31T07:08:55;99396.59;;;23.38;43.26
78625;BME280;67944;0.000;0.000;2023-10-31T07:11:20;99401.66;;;23.39;42.95
78625;BME280;67944;0.000;0.000;2023-10-31T07:13:46;99410.22;;;23.41;42.66
78625;BME280;67944;0.000;0.000;2023-10-31T07:16:11;99416.13;;;23.43;42.82
78625;BME280;67944;0.000;0.000;2023-10-31T07:18:37;99419.59;;;23.44;42.89
78625;BME280;67944;0.000;0.000;2023-10-31T07:21:03;99418.56;;;23.45;42.67
78625;BME280;67944;0.000;0.000;2023-10-31T07:23:28;99423.66;;;23.46;42.46
78625;BME280;67944;0.000;0.000;2023-10-31T07:25:54;99435.09;;;23.47;43.16
78625;BME280;67944;0.000;0.000;2023-10-31T07:28:19;99427.94;;;23.47;42.46
78625;BME280;67944;0.000;0.000;2023-10-31T07:30:45;99435.91;;;23.47;42.33
78625;BME280;67944;0.000;0.000;2023-10-31T07:33:10;99435.91;;;23.47;42.78
78625;BME280;67944;0.000;0.000;2023-10-31T07:35:36;99443.66;;;23.49;42.81
78625;BME280;67944;0.000;0.000;2023-10-31T07:38:02;99446.09;;;23.50;42.94
78625;BME280;67944;0.000;0.000;2023-10-31T07:40:28;99451.22;;;23.52;42.34
78625;BME280;67944;0.000;0.000;2023-10-31T07:42:54;99462.03;;;23.50;42.66
78625;BME280;67944;0.000;0.000;2023-10-31T07:45:19;99459.19;;;23.52;43.28
78625;BME280;67944;0.000;0.000;2023-10-31T07:47:45;99472.47;;;23.52;43.32
78625;BME280;67944;0.000;0.000;2023-10-31T07:50:10;99476.75;;;23.53;42.50
78625;BME280;67944;0.000;0.000;2023-10-31T07:52:36;99476.53;;;23.54;42.70
78625;BME280;67944;0.000;0.000;2023-10-31T07:55:01;99476.53;;;23.54;43.35
78625;BME280;67944;0.000;0.000;2023-10-31T07:57:27;99475.50;;;23.55;42.76
78625;BME280;67944;0.000;0.000;2023-10-31T07:59:52;99470.19;;;23.55;42.70
78625;BME280;67944;0.000;0.000;2023-10-31T08:02:18;99464.88;;;23.55;43.26
78625;BME280;67944;0.000;0.000;2023-10-31T08:04:43;99469.97;;;23.57;43.35
78625;BME280;67944;0.000;0.000;2023-10-31T08:07:08;99470.78;;;23.57;42.63
78625;BME280;67944;0.000;0.000;2023-10-31T08:09:34;99467.31;;;23.57;43.22
78625;BME280;67944;0.000;0.000;2023-10-31T08:11:59;99476.91;;;23.58;42.41
78625;BME280;67944;0.000;0.000;2023-10-31T08:14:25;99476.09;;;23.57;42.38
78625;BME280;67944;0.000;0.000;2023-10-31T08:16:50;99485.69;;;23.58;42.79
78625;BME280;67944;0.000;0.000;2023-10-31T08:19:16;99481.41;;;23.57;42.62
78625;BME280;67944;0.000;0.000;2023-10-31T08:21:41;99482.44;;;23.56;42.93
78625;BME280;67944;0.000;0.000;2023-10-31T08:24:07;99485.09;;;23.56;43.01
78625;BME280;67944;0.000;0.000;2023-10-31T08:26:33;99489.38;;;23.57;43.05
78625;BME280;67944;0.000;0.000;2023-10-31T08:28:59;99486.13;;;23.55;42.62
78625;BME280;67944;0.000;0.000;2023-10-31T08:31:25;99484.50;;;23.54;42.74
78625;BME280;67944;0.000;0.000;2023-10-31T08:33:50;99494.31;;;23.54;42.48
78625;BME280;67944;0.000;0.000;2023-10-31T08:36:15;99490.84;;;23.53;42.76
78625;BME280;67944;0.000;0.000;2023-10-31T08:38:41;99489.81;;;23.54;43.25
78625;BME280;67944;0.000;0.000;2023-10-31T08:41:07;99500.47;;;23.54;43.10
78625;BME280;67944;0.000;0.000;2023-10-31T08:43:32;99509.03;;;23.56;42.46
78625;BME280;67944;0.000;0.000;2023-10-31T08:45:58;99502.09;;;23.55;42.54
78625;BME280;67944;0.000;0.000;2023-10-31T08:48:23;99510.88;;;23.56;42.82
78625;BME280;67944;0.000;0.000;2023-10-31T08:50:49;99507.41;;;23.55;42.72
78625;BME280;67944;0.000;0.000;2023-10-31T08:53:14;99515.38;;;23.55;42.40
78625;BME280;67944;0.000;0.000;2023-10-31T08:55:40;99521.50;;;23.56;42.68
78625;BME280;67944;0.000;0.000;2023-10-31T08:58:11;99526.59;;;23.57;42.16
78625;BME280;67944;0.000;0.000;2023-10-31T09:00:36;99531.09;;;23.57;42.59
78625;BME280;67944;0.000;0.000;2023-10-31T09:03:01;99534.34;;;23.59;42.68
78625;BME280;67944;0.000;0.000;2023-10-31T09:05:27;99534.09;;;23.61;42.68
78625;BME280;67944;0.000;0.000;2023-10-31T09:07:52;99533.88;;;23.62;43.01
78625;BME280;67944;0.000;0.000;2023-10-31T09:10:18;99537.94;;;23.65;42.30
78625;BME280;67944;0.000;0.000;2023-10-31T09:12:43;99544.88;;;23.66;43.25
78625;BME280;67944;0.000;0.000;2023-10-31T09:15:09;99537.72;;;23.66;43.09
78625;BME280;67944;0.000;0.000;2023-10-31T09:17:34;99545.47;;;23.68;42.40
78625;BME280;67944;0.000;0.000;2023-10-31T09:20:00;99549.75;;;23.69;42.46
78625;BME280;67944;0.000;0.000;2023-10-31T09:22:25;99556.69;;;23.70;42.28
78625;BME280;67944;0.000;0.000;2023-10-31T09:24:51;99565.50;;;23.70;42.48
78625;BME280;67944;0.000;0.000;2023-10-31T09:27:16;99568.16;;;23.70;42.67
78625;BME280;67944;0.000;0.000;2023-10-31T09:29:42;99575.53;;;23.68;42.07
78625;BME280;67944;0.000;0.000;2023-10-31T09:32:07;99572.66;;;23.70;42.65
78625;BME280;67944;0.000;0.000;2023-10-31T09:34:33;99579.81;;;23.69;42.64
78625;BME280;67944;0.000;0.000;2023-10-31T09:36:58;99578.78;;;23.70;42.12
78625;BME280;67944;0.000;0.000;2023-10-31T09:39:24;99573.25;;;23.72;42.63
78625;BME280;67944;0.000;0.000;2023-10-31T09:41:49;99576.72;;;23.72;42.33
78625;BME280;67944;0.000;0.000;2023-10-31T09:44:15;99572.81;;;23.75;42.16
78625;BME280;67944;0.000;0.000;2023-10-31T09:46:41;99569.13;;;23.76;42.36
78625;BME280;67944;0.000;0.000;2023-10-31T09:49:07;99571.34;;;23.79;42.87
78625;BME280;67944;0.000;0.000;2023-10-31T09:51:33;99575.63;;;23.80;41.80
78625;BME280;67944;0.000;0.000;2023-10-31T09:54:02;99581.75;;;23.80;42.33
78625;BME280;67944;0.000;0.000;2023-10-31T09:56:28;99579.44;;;23.84;42.48
78625;BME280;67944;0.000;0.000;2023-10-31T09:59:01;99578.19;;;23.86;42.05
78625;BME280;67944;0.000;0.000;2023-10-31T10:01:26;99572.41;;;23.89;42.32
78625;BME280;67944;0.000;0.000;2023-10-31T10:03:52;99576.47;;;23.92;42.38
78625;BME280;67944;0.000;0.000;2023-10-31T10:06:20;99565.41;;;23.95;41.64
78625;BME280;67944;0.000;0.000;2023-10-31T10:08:46;99570.50;;;23.97;41.36
78625;BME280;67944;0.000;0.000;2023-10-31T10:11:12;99564.16;;;23.98;42.04
78625;BME280;67944;0.000;0.000;2023-10-31T10:13:38;99568.44;;;23.99;41.82
78625;BME280;67944;0.000;0.000;2023-10-31T10:16:04;99575.22;;;23.95;40.96
78625;BME280;67944;0.000;0.000;2023-10-31T10:18:34;99571.97;;;23.92;41.41
78625;BME280;67944;0.000;0.000;2023-10-31T10:21:10;99571.97;;;23.92;41.16
78625;BME280;67944;0.000;0.000;2023-10-31T10:23:36;99569.09;;;23.94;41.40
78625;BME280;67944;0.000;0.000;2023-10-31T10:26:02;99574.41;;;23.94;41.02
78625;BME280;67944;0.000;0.000;2023-10-31T10:28:28;99577.66;;;23.96;41.72
78625;BME280;67944;0.000;0.000;2023-10-31T10:30:58;99571.31;;;23.97;41.05
78625;BME280;67944;0.000;0.000;2023-10-31T10:33:23;99580.69;;;24.00;41.87
78625;BME280;67944;0.000;0.000;2023-10-31T10:35:49;99574.34;;;24.01;41.00
78625;BME280;67944;0.000;0.000;2023-10-31T10:38:17;99574.69;;;24.04;41.42
78625;BME280;67944;0.000;0.000;2023-10-31T10:40:47;99569.94;;;24.06;41.33
78625;BME280;67944;0.000;0.000;2023-10-31T10:43:23;99584.66;;;24.09;41.62
78625;BME280;67944;0.000;0.000;2023-10-31T10:45:59;99579.09;;;24.10;42.02
78625;BME280;67944;0.000;0.000;2023-10-31T10:48:25;99579.69;;;24.12;41.82
78625;BME280;67944;0.000;0.000;2023-10-31T10:51:18;99585.38;;;24.16;41.55
78625;BME280;67944;0.000;0.000;2023-10-31T10:53:56;99589.44;;;24.18;41.08
78625;BME280;67944;0.000;0.000;2023-10-31T10:56:30;99594.31;;;24.21;41.39
78625;BME280;67944;0.000;0.000;2023-10-31T10:59:03;99583.25;;;24.24;41.43
78625;BME280;67944;0.000;0.000;2023-10-31T11:01:33;99582.19;;;24.25;41.55
78625;BME280;67944;0.000;0.000;2023-10-31T11:04:00;99569.97;;;24.24;41.22
78625;BME280;67944;0.000;0.000;2023-10-31T11:06:26;99569.97;;;24.24;40.57
78625;BME280;67944;0.000;0.000;2023-10-31T11:08:53;99560.78;;;24.20;40.14
78625;BME280;67944;0.000;0.000;2023-10-31T11:11:19;99560.63;;;24.15;40.56
78625;BME280;67944;0.000;0.000;2023-10-31T11:13:45;99558.84;;;24.09;40.42
78625;BME280;67944;0.000;0.000;2023-10-31T11:16:20;99566.94;;;24.03;39.99
78625;BME280;67944;0.000;0.000;2023-10-31T11:18:50;99561.47;;;23.98;39.82
78625;BME280;67944;0.000;0.000;2023-10-31T11:21:15;99570.13;;;23.93;39.79
78625;BME280;67944;0.000;0.000;2023-10-31T11:23:41;99574.84;;;23.91;39.60
78625;BME280;67944;0.000;0.000;2023-10-31T11:26:07;99572.19;;;23.91;39.34
78625;BME280;67944;0.000;0.000;2023-10-31T11:28:33;99572.78;;;23.93;39.87
78625;BME280;67944;0.000;0.000;2023-10-31T11:30:59;99573.16;;;23.97;40.01
78625;BME280;67944;0.000;0.000;2023-10-31T11:33:27;99578.63;;;24.02;40.14
78625;BME280;67944;0.000;0.000;2023-10-31T11:36:03;99580.00;;;24.04;40.58
78625;BME280;67944;0.000;0.000;2023-10-31T11:38:35;99575.84;;;24.08;40.28
78625;BME280;67944;0.000;0.000;2023-10-31T11:41:03;99574.38;;;24.12;40.49
78625;BME280;67944;0.000;0.000;2023-10-31T11:43:49;99576.59;;;24.15;39.71
78625;BME280;67944;0.000;0.000;2023-10-31T11:46:22;99578.81;;;24.18;40.16
78625;BME280;67944;0.000;0.000;2023-10-31T11:48:52;99570.38;;;24.21;40.06
78625;BME280;67944;0.000;0.000;2023-10-31T11:51:18;99573.63;;;24.23;39.90
78625;BME280;67944;0.000;0.000;2023-10-31T11:53:44;99574.47;;;24.24;40.44
78625;BME280;67944;0.000;0.000;2023-10-31T11:56:11;99583.00;;;24.26;39.98
78625;BME280;67944;0.000;0.000;2023-10-31T11:58:37;99596.09;;;24.27;40.25
78625;BME280;67944;0.000;0.000;2023-10-31T12:01:08;99591.34;;;24.30;40.59
78625;BME280;67944;0.000;0.000;2023-10-31T12:03:41;99592.97;;;24.31;40.50
78625;BME280;67944;0.000;0.000;2023-10-31T12:06:08;99593.56;;;24.33;40.28
78625;BME280;67944;0.000;0.000;2023-10-31T12:08:39;99595.78;;;24.36;39.65
78625;BME280;67944;0.000;0.000;2023-10-31T12:11:16;99589.44;;;24.37;40.10
78625;BME280;67944;0.000;0.000;2023-10-31T12:14:03;99594.31;;;24.40;40.69
78625;BME280;67944;0.000;0.000;2023-10-31T12:16:33;99597.56;;;24.42;39.94
78625;BME280;67944;0.000;0.000;2023-10-31T12:19:01;99597.34;;;24.43;40.57
78625;BME280;67944;0.000;0.000;2023-10-31T12:21:38;99593.41;;;24.46;40.49
78625;BME280;67944;0.000;0.000;2023-10-31T12:24:05;99603.56;;;24.49;39.50
78625;BME280;67944;0.000;0.000;2023-10-31T12:26:33;99609.25;;;24.52;39.63
78625;BME280;67944;0.000;0.000;2023-10-31T12:29:19;99608.00;;;24.55;40.02
78625;BME280;67944;0.000;0.000;2023-10-31T12:31:50;99611.25;;;24.57;40.10
78625;BME280;67944;0.000;0.000;2023-10-31T12:34:18;99598.75;;;24.57;39.71
78625;BME280;67944;0.000;0.000;2023-10-31T12:36:46;99612.66;;;24.59;40.00
78625;BME280;67944;0.000;0.000;2023-10-31T12:39:12;99608.72;;;24.62;39.45
78625;BME280;67944;0.000;0.000;2023-10-31T12:41:39;99611.97;;;24.64;39.70
78625;BME280;67944;0.000;0.000;2023-10-31T12:44:07;99617.06;;;24.66;39.48
78625;BME280;67944;0.000;0.000;2023-10-31T12:46:39;99622.19;;;24.67;40.23
78625;BME280;67944;0.000;0.000;2023-10-31T12:49:11;99621.91;;;24.69;39.85
78625;BME280;67944;0.000;0.000;2023-10-31T12:51:38;99611.03;;;24.70;40.04
78625;BME280;67944;0.000;0.000;2023-10-31T12:54:05;99618.00;;;24.71;39.49
78625;BME280;67944;0.000;0.000;2023-10-31T12:56:41;99631.91;;;24.73;39.77
78625;BME280;67944;0.000;0.000;2023-10-31T12:59:09;99617.53;;;24.74;40.20
78625;BME280;67944;0.000;0.000;2023-10-31T13:01:35;99621.84;;;24.75;39.82
78625;BME280;67944;0.000;0.000;2023-10-31T13:04:04;99618.13;;;24.76;40.06
78625;BME280;67944;0.000;0.000;2023-10-31T13:06:30;99618.72;;;24.78;39.44
78625;BME280;67944;0.000;0.000;2023-10-31T13:08:56;99616.88;;;24.79;39.49